Terminal Aerodrome Forecast
Issued by NWS

Home | Current Version | Previous Version | Text Only | Print | Product List | Glossary On
Versions: 1 2 3 4 5 6 7 8 9 10 11 12 13 14 15 16 17 18 19 20 21
000
FTUS44 KSJT 241245 AAA
TAFJCT
TAF AMD
KJCT 241245Z 2413/2512 17006KT P6SM SCT020
      TEMPO 2413/2416 BKN020
     FM241600 18012G19KT P6SM SCT030
     FM241800 18013G20KT P6SM SCT050
     FM250300 15005KT P6SM SKC=

USA.gov is the U.S. government's official web portal to all federal, state and local government web resources and services.